.
WxDataArchive / Data Records for 2015-07-23
2015-07-22 July 2015 2015-07-24

Data Records for Thursday, 23 July 2015

Time	Temp	Chill	HIndex	Humid	Dewpt	 Wind 	HiWind	WindDir	Rain 	Barom
-----	----	-----	------	-----	-----	------	------	-------	-----	-----
00:00	66.4	66.4	66.4	80	60.0	0	0	---	0.00	29.945 
00:05	66.3	66.3	66.3	80	59.9	0	0	---	0.00	29.945 
00:10	66.1	66.1	66.1	81	60.1	0	0	---	0.00	29.945 
00:15	66.0	66.0	66.0	81	60.0	0	0	---	0.00	29.948 
00:20	65.8	65.8	65.8	81	59.8	0	0	---	0.00	29.948 
00:25	65.5	65.5	65.5	82	59.9	0	0	---	0.00	29.948 
00:30	65.3	65.3	65.3	82	59.7	0	0	---	0.00	29.948 
00:35	65.2	65.2	65.2	83	59.9	0	0	---	0.00	29.948 
00:40	65.0	65.0	65.0	84	60.0	0	0	---	0.00	29.948 
00:45	65.0	65.0	65.0	84	60.0	0	0	---	0.00	29.951 
00:50	64.8	64.8	64.8	84	59.8	0	0	---	0.00	29.951 
00:55	64.7	64.7	64.7	85	60.1	0	0	---	0.00	29.951 
01:00	64.7	64.7	64.7	85	60.1	0	0	---	0.00	29.953 
01:05	64.7	64.7	64.7	85	60.1	0	0	---	0.00	29.953 
01:10	64.7	64.7	64.7	85	60.1	0	0	---	0.00	29.953 
01:15	64.7	64.7	64.7	85	60.1	0	0	---	0.00	29.953 
01:20	64.5	64.5	64.5	86	60.2	0	0	---	0.00	29.953 
01:25	64.5	64.5	64.5	86	60.2	0	0	---	0.00	29.953 
01:30	64.3	64.3	64.3	86	60.0	0	0	---	0.00	29.953 
01:35	64.2	64.2	64.2	86	59.9	0	0	---	0.00	29.953 
01:40	64.2	64.2	64.2	87	60.2	0	0	---	0.00	29.953 
01:45	64.2	64.2	64.2	87	60.2	0	0	---	0.00	29.954 
01:50	64.2	64.2	64.2	87	60.2	0	0	---	0.00	29.954 
01:55	64.2	64.2	64.2	88	60.6	0	0	---	0.00	29.954 
02:00	64.2	64.2	64.2	88	60.6	0	0	---	0.00	29.954 
02:05	64.2	64.2	64.2	88	60.6	0	0	---	0.00	29.954 
02:10	64.3	64.3	64.3	88	60.7	0	0	---	0.00	29.954 
02:15	64.3	64.3	64.3	88	60.7	0	0	---	0.00	29.953 
02:20	64.3	64.3	64.3	88	60.7	0	0	---	0.00	29.953 
02:25	64.3	64.3	64.3	88	60.7	0	0	---	0.00	29.953 
02:30	64.3	64.3	64.3	88	60.7	0	0	---	0.00	29.954 
02:35	64.3	64.3	64.3	88	60.7	0	0	---	0.00	29.954 
02:40	64.3	64.3	64.3	88	60.7	0	0	---	0.00	29.954 
02:45	64.5	64.5	64.5	88	60.9	0	0	---	0.00	29.951 
02:50	64.5	64.5	64.5	88	60.9	0	0	---	0.00	29.951 
02:55	64.5	64.5	64.5	88	60.9	0	0	---	0.00	29.951 
03:00	64.5	64.5	64.5	88	60.9	0	0	---	0.00	29.951 
03:05	64.5	64.5	64.5	88	60.9	0	0	---	0.00	29.951 
03:10	64.5	64.5	64.5	88	60.9	0	0	---	0.00	29.951 
03:15	64.5	64.5	64.5	88	60.9	0	0	---	0.00	29.951 
03:20	64.5	64.5	64.5	88	60.9	0	0	---	0.00	29.951 
03:25	64.3	64.3	64.3	88	60.7	0	0	---	0.00	29.951 
03:30	64.5	64.5	64.5	88	60.9	0	0	---	0.00	29.951 
03:35	64.5	64.5	64.5	88	60.9	0	0	---	0.00	29.951 
03:40	64.3	64.3	64.3	88	60.7	0	0	---	0.00	29.951 
03:45	64.3	64.3	64.3	88	60.7	0	0	---	0.00	29.951 
03:50	64.3	64.3	64.3	88	60.7	0	0	---	0.00	29.951 
03:55	64.3	64.3	64.3	88	60.7	0	0	---	0.00	29.951 
04:00	64.2	64.2	64.2	88	60.6	0	0	---	0.00	29.953 
04:05	64.2	64.2	64.2	88	60.6	0	0	---	0.00	29.953 
04:10	64.0	64.0	64.0	88	60.4	0	0	---	0.00	29.953 
04:15	63.9	63.9	63.9	88	60.3	0	0	---	0.00	29.954 
04:20	63.9	63.9	63.9	88	60.3	0	0	---	0.00	29.954 
04:25	63.7	63.7	63.7	88	60.1	0	0	---	0.00	29.954 
04:30	63.5	63.5	63.5	88	59.9	0	0	---	0.00	29.953 
04:35	63.4	63.4	63.4	88	59.8	0	0	---	0.00	29.953 
04:40	63.2	63.2	63.2	88	59.6	0	0	---	0.00	29.953 
04:45	63.1	63.1	63.1	88	59.5	0	0	---	0.00	29.955 
04:50	62.9	62.9	62.9	89	59.6	0	0	---	0.00	29.955 
04:55	62.6	62.6	62.6	89	59.3	0	0	---	0.00	29.955 
05:00	62.4	62.4	62.4	89	59.1	0	0	---	0.00	29.955 
05:05	62.3	62.3	62.3	89	59.0	0	0	---	0.00	29.955 
05:10	62.1	62.1	62.1	90	59.1	0	0	---	0.00	29.955 
05:15	62.0	62.0	62.0	90	59.0	0	0	---	0.00	29.957 
05:20	61.8	61.8	61.8	90	58.8	0	0	---	0.00	29.957 
05:25	61.6	61.6	61.6	90	58.6	0	0	---	0.00	29.957 
05:30	61.6	61.6	61.6	90	58.6	0	0	---	0.00	29.958 
05:35	61.5	61.5	61.5	90	58.5	0	0	---	0.00	29.958 
05:40	61.3	61.3	61.3	91	58.6	0	0	---	0.00	29.958 
05:45	61.2	61.2	61.2	91	58.5	0	0	---	0.00	29.959 
05:50	61.2	61.2	61.2	91	58.5	0	0	---	0.00	29.959 
05:55	61.0	61.0	61.0	91	58.4	0	0	---	0.00	29.959 
06:00	60.9	60.9	60.9	91	58.3	0	0	---	0.00	29.959 
06:05	60.7	60.7	60.7	91	58.1	0	0	---	0.00	29.959 
06:10	60.7	60.7	60.7	91	58.1	0	0	---	0.00	29.959 
06:15	60.5	60.5	60.5	91	57.9	0	0	---	0.00	29.959 
06:20	60.5	60.5	60.5	92	58.2	0	0	---	0.00	29.959 
06:25	60.4	60.4	60.4	92	58.1	0	0	---	0.00	29.959 
06:30	60.4	60.4	60.4	92	58.1	0	0	---	0.00	29.963 
06:35	60.2	60.2	60.2	92	57.9	0	0	---	0.00	29.963 
06:40	60.1	60.1	60.1	92	57.8	0	0	---	0.00	29.963 
06:45	60.1	60.1	60.1	92	57.8	0	0	---	0.00	29.966 
06:50	59.9	59.9	59.9	92	57.6	0	0	---	0.00	29.966 
06:55	59.9	59.9	59.9	92	57.6	0	0	---	0.00	29.966 
07:00	59.9	59.9	59.9	92	57.6	0	0	---	0.00	29.970 
07:05	60.1	60.1	60.1	93	58.1	0	0	---	0.00	29.970 
07:10	60.2	60.2	60.2	93	58.2	0	0	---	0.00	29.970 
07:15	60.4	60.4	60.4	93	58.4	0	0	---	0.00	29.975 
07:20	60.5	60.5	60.5	93	58.5	0	0	---	0.00	29.975 
07:25	60.7	60.7	60.7	93	58.7	0	0	---	0.00	29.975 
07:30	61.0	61.0	61.0	93	59.0	0	0	---	0.00	29.978 
07:35	61.2	61.2	61.2	93	59.2	0	0	---	0.00	29.978 
07:40	61.5	61.5	61.5	93	59.5	0	0	---	0.00	29.978 
07:45	62.0	62.0	62.0	93	59.9	0	0	---	0.00	29.982 
07:50	62.6	62.6	62.6	94	60.8	0	0	---	0.00	29.982 
07:55	63.7	63.7	63.7	94	61.9	0	0	---	0.00	29.982 
08:00	65.0	65.0	65.0	92	62.6	0	0	---	0.00	29.981 
08:05	65.8	65.8	65.8	92	63.4	0	0	---	0.00	29.981 
08:10	66.9	66.9	66.9	88	63.2	0	1	315	0.00	29.981 
08:15	68.1	68.1	68.1	83	62.7	0	1	315	0.00	29.982 
08:20	69.1	69.1	69.1	79	62.3	0	1	315	0.00	29.982 
08:25	70.3	70.3	70.3	76	62.4	0	1	315	0.00	29.982 
08:30	70.9	70.9	70.9	74	62.2	0	0	---	0.00	29.981 
08:35	72.0	72.0	72.0	71	62.1	0	0	---	0.00	29.981 
08:40	73.0	73.0	73.0	67	61.4	0	2	315	0.00	29.981 
08:45	73.5	73.5	73.5	64	60.6	0	2	315	0.00	29.981 
08:50	73.9	73.9	73.9	65	61.4	0	1	315	0.00	29.981 
08:55	73.9	73.9	73.9	64	60.9	0	1	315	0.00	29.981 
09:00	74.0	74.0	74.0	64	61.0	0	1	315	0.00	29.981 
09:05	74.4	74.4	74.4	62	60.5	0	3	315	0.00	29.981 
09:10	74.9	74.9	74.9	60	60.1	0	3	315	0.00	29.981 
09:15	75.1	75.1	77.5	59	59.8	1	3	0	0.00	29.986 
09:20	74.9	74.9	74.9	61	60.5	1	3	0	0.00	29.986 
09:25	74.9	74.9	74.9	58	59.1	1	3	0	0.00	29.986 
09:30	75.1	75.1	77.5	59	59.8	1	3	0	0.00	29.987 
09:35	75.4	75.4	77.6	59	60.1	1	3	0	0.00	29.987 
09:40	75.6	75.6	77.8	56	58.8	0	3	0	0.00	29.987 
09:45	76.3	76.3	78.3	54	58.4	0	2	0	0.00	29.984 
09:50	76.7	76.7	78.5	54	58.8	0	1	0	0.00	29.984 
09:55	76.8	76.8	78.5	52	57.8	0	2	0	0.00	29.984 
10:00	76.8	76.8	78.6	55	59.4	0	1	0	0.00	29.984 
10:05	76.8	76.8	78.4	47	55.0	0	2	0	0.00	29.984 
10:10	77.4	77.4	78.8	49	56.7	0	3	0	0.00	29.984 
10:15	77.7	77.7	79.0	49	57.0	0	3	0	0.00	29.984 
10:20	78.3	78.3	79.3	47	56.4	0	2	0	0.00	29.984 
10:25	78.5	78.5	79.4	47	56.6	0	2	0	0.00	29.984 
10:30	78.6	78.6	79.5	48	57.2	0	1	0	0.00	29.984 
10:35	78.6	78.6	79.5	47	56.7	0	2	0	0.00	29.984 
10:40	79.2	79.2	80.0	48	57.8	0	0	---	0.00	29.984 
10:45	79.6	79.6	80.1	46	57.0	0	1	0	0.00	29.984 
10:50	79.8	79.8	80.3	46	57.2	0	2	45	0.00	29.984 
10:55	79.9	79.9	80.5	48	58.4	0	0	---	0.00	29.984 
11:00	79.8	79.8	80.0	43	55.3	0	3	45	0.00	29.982 
11:05	79.8	79.8	80.1	44	55.9	1	2	45	0.00	29.982 
11:10	79.9	79.9	80.4	46	57.2	0	1	45	0.00	29.982 
11:15	79.6	79.6	80.2	47	57.6	0	1	45	0.00	29.985 
11:20	79.9	79.9	80.4	46	57.2	0	1	45	0.00	29.985 
11:25	80.1	80.1	80.3	44	56.2	0	2	45	0.00	29.985 
11:30	80.1	80.1	80.3	43	55.6	1	3	68	0.00	29.986 
11:35	79.9	79.9	80.4	46	57.2	0	2	68	0.00	29.986 
11:40	79.9	79.9	80.1	43	55.4	0	2	68	0.00	29.986 
11:45	80.3	80.3	81.1	50	59.9	0	4	68	0.00	29.983 
11:50	80.9	80.9	81.2	46	58.2	0	4	68	0.00	29.983 
11:55	81.1	81.1	81.1	44	57.1	1	2	68	0.00	29.983 
12:00	80.9	80.9	81.2	46	58.2	1	4	68	0.00	29.984 
12:05	80.3	80.3	80.7	46	57.6	1	4	68	0.00	29.984 
12:10	79.6	79.6	80.1	46	57.0	0	1	68	0.00	29.984 
12:15	79.2	79.2	79.8	46	56.6	0	3	68	0.00	29.985 
12:20	79.4	79.4	80.1	48	58.0	1	4	68	0.00	29.985 
12:25	79.8	79.8	80.5	49	58.9	1	4	68	0.00	29.985 
12:30	80.1	80.1	80.8	49	59.2	1	4	68	0.00	29.984 
12:35	80.5	80.5	81.0	48	59.0	1	3	68	0.00	29.984 
12:40	80.7	80.7	80.8	44	56.7	1	4	68	0.00	29.984 
12:45	80.7	80.7	80.8	44	56.7	1	4	68	0.00	29.983 
12:50	80.3	80.3	80.7	46	57.6	1	3	68	0.00	29.983 
12:55	79.6	79.6	80.1	46	57.0	0	2	68	0.00	29.983 
13:00	80.1	80.1	80.6	47	58.0	0	2	68	0.00	29.983 
13:05	80.9	80.9	81.2	46	58.2	0	2	68	0.00	29.983 
13:10	81.6	81.6	81.8	46	58.8	0	0	---	0.00	29.983 
13:15	82.2	82.2	82.4	46	59.3	0	1	68	0.00	29.981 
13:20	81.6	81.6	81.5	43	56.9	0	3	68	0.00	29.981 
13:25	80.7	80.7	80.9	45	57.4	1	3	45	0.00	29.981 
13:30	80.3	80.3	80.7	46	57.6	1	3	338	0.00	29.983 
13:35	80.3	80.3	80.6	45	57.0	1	2	338	0.00	29.983 
13:40	80.1	80.1	80.5	46	57.4	0	2	338	0.00	29.983 
13:45	80.3	80.3	80.7	46	57.6	0	2	0	0.00	29.983 
13:50	81.1	81.1	81.4	46	58.3	1	4	90	0.00	29.983 
13:55	81.1	81.1	81.3	45	57.7	1	3	90	0.00	29.983 
14:00	80.7	80.7	81.3	49	59.7	0	1	90	0.00	29.980 
14:05	80.5	80.5	80.9	47	58.4	0	1	112	0.00	29.980 
14:10	80.7	80.7	81.2	48	59.2	0	2	112	0.00	29.980 
14:15	81.4	81.4	81.8	47	59.2	1	3	112	0.00	29.978 
14:20	81.8	81.8	82.1	47	59.6	1	4	112	0.00	29.978 
14:25	81.6	81.6	81.7	45	58.2	1	3	315	0.00	29.978 
14:30	82.0	82.0	82.6	49	60.9	0	3	112	0.00	29.978 
14:35	81.8	81.8	82.0	46	59.0	1	2	112	0.00	29.978 
14:40	81.4	81.4	81.4	44	57.4	1	3	112	0.00	29.978 
14:45	80.9	80.9	81.2	46	58.2	0	2	112	0.00	29.980 
14:50	80.5	80.5	80.9	47	58.4	0	2	112	0.00	29.980 
14:55	80.1	80.1	80.8	49	59.2	1	2	112	0.00	29.980 
15:00	79.8	79.8	80.4	47	57.8	0	2	112	0.00	29.981 
15:05	79.6	79.6	80.2	47	57.6	0	3	112	0.00	29.981 
15:10	79.9	79.9	80.8	51	60.1	0	2	112	0.00	29.981 
15:15	80.3	80.3	80.8	47	58.2	0	2	112	0.00	29.974 
15:20	80.7	80.7	81.3	49	59.7	0	2	112	0.00	29.974 
15:25	81.2	81.2	81.5	46	58.4	0	2	112	0.00	29.974 
15:30	81.6	81.6	81.9	47	59.4	1	2	112	0.00	29.971 
15:35	82.0	82.0	81.8	43	57.3	0	3	112	0.00	29.971 
15:40	82.8	82.8	83.0	46	59.9	0	2	112	0.00	29.971 
15:45	82.8	82.8	82.6	43	58.0	1	3	112	0.00	29.966 
15:50	82.8	82.8	82.7	44	58.6	0	1	112	0.00	29.966 
15:55	83.0	83.0	83.1	45	59.4	0	1	112	0.00	29.966 
16:00	82.8	82.8	82.9	45	59.3	0	3	112	0.00	29.964 
16:05	82.2	82.2	83.0	50	61.7	0	2	112	0.00	29.964 
16:10	82.2	82.2	82.7	48	60.5	0	3	112	0.00	29.964 
16:15	82.2	82.2	82.3	45	58.7	1	4	112	0.00	29.958 
16:20	82.6	82.6	82.5	44	58.4	0	1	112	0.00	29.958 
16:25	83.2	83.2	83.4	46	60.2	1	3	338	0.00	29.958 
16:30	82.8	82.8	82.7	44	58.6	0	2	338	0.00	29.953 
16:35	83.0	83.0	83.1	45	59.4	1	3	338	0.00	29.953 
16:40	83.0	83.0	82.8	43	58.2	0	2	338	0.00	29.953 
16:45	83.0	83.0	83.1	45	59.4	1	3	338	0.00	29.952 
16:50	82.4	82.4	82.3	44	58.3	0	2	338	0.00	29.952 
16:55	81.6	81.6	81.7	45	58.2	0	1	338	0.00	29.952 
17:00	81.1	81.1	81.5	47	58.9	0	1	338	0.00	29.954 
17:05	80.9	80.9	81.3	47	58.8	0	1	338	0.00	29.954 
17:10	81.6	81.6	81.8	46	58.8	0	2	338	0.00	29.954 
17:15	81.2	81.2	81.3	45	57.8	1	2	338	0.00	29.951 
17:20	80.9	80.9	81.3	47	58.8	0	1	338	0.00	29.951 
17:25	80.9	80.9	81.3	47	58.8	0	1	338	0.00	29.951 
17:30	80.7	80.7	81.1	47	58.6	0	1	338	0.00	29.950 
17:35	80.9	80.9	81.6	50	60.5	0	2	338	0.00	29.950 
17:40	81.2	81.2	81.6	47	59.0	0	3	338	0.00	29.950 
17:45	81.6	81.6	81.8	46	58.8	0	2	338	0.00	29.947 
17:50	81.4	81.4	81.8	47	59.2	0	1	338	0.00	29.947 
17:55	80.9	80.9	81.3	47	58.8	0	1	338	0.00	29.947 
18:00	80.5	80.5	81.3	50	60.1	0	0	---	0.00	29.949 
18:05	80.3	80.3	81.0	49	59.4	0	1	338	0.00	29.949 
18:10	80.3	80.3	81.1	50	59.9	0	0	---	0.00	29.949 
18:15	80.3	80.3	81.1	50	59.9	0	1	338	0.00	29.944 
18:20	80.3	80.3	81.2	51	60.5	0	1	338	0.00	29.944 
18:25	80.3	80.3	81.3	52	61.0	0	1	338	0.00	29.944 
18:30	80.5	80.5	81.3	50	60.1	0	3	90	0.00	29.943 
18:35	80.7	80.7	81.2	48	59.2	0	2	90	0.00	29.943 
18:40	80.7	80.7	81.3	49	59.7	0	2	90	0.00	29.943 
18:45	80.7	80.7	81.3	49	59.7	0	1	90	0.00	29.942 
18:50	80.7	80.7	81.6	51	60.9	0	3	90	0.00	29.942 
18:55	80.7	80.7	81.3	49	59.7	0	3	90	0.00	29.942 
19:00	80.7	80.7	81.4	50	60.3	0	1	90	0.00	29.940 
19:05	80.5	80.5	81.2	49	59.6	0	2	90	0.00	29.940 
19:10	80.5	80.5	81.3	50	60.1	0	2	90	0.00	29.940 
19:15	80.5	80.5	81.3	50	60.1	0	2	90	0.00	29.934 
19:20	80.5	80.5	81.0	48	59.0	0	2	90	0.00	29.934 
19:25	80.3	80.3	80.9	48	58.8	0	1	90	0.00	29.934 
19:30	80.3	80.3	81.1	50	59.9	0	1	90	0.00	29.935 
19:35	80.3	80.3	81.1	50	59.9	0	0	---	0.00	29.935 
19:40	80.1	80.1	80.9	50	59.8	0	0	---	0.00	29.935 
19:45	79.9	79.9	80.7	50	59.6	0	0	---	0.00	29.934 
19:50	79.9	79.9	80.7	50	59.6	0	1	90	0.00	29.934 
19:55	79.8	79.8	80.6	50	59.5	0	1	90	0.00	29.934 
20:00	79.8	79.8	80.6	50	59.5	0	0	---	0.00	29.934 
20:05	79.8	79.8	80.7	51	60.0	0	0	---	0.00	29.934 
20:10	79.6	79.6	80.5	51	59.9	0	1	90	0.00	29.934 
20:15	79.6	79.6	80.7	53	60.9	0	0	---	0.00	29.927 
20:20	79.4	79.4	80.5	52	60.2	0	1	90	0.00	29.927 
20:25	79.2	79.2	80.4	53	60.6	0	0	---	0.00	29.927 
20:30	79.0	79.0	80.3	54	60.9	0	0	---	0.00	29.929 
20:35	78.6	78.6	79.8	53	60.0	0	0	---	0.00	29.929 
20:40	78.5	78.5	79.8	54	60.4	0	0	---	0.00	29.929 
20:45	78.3	78.3	79.7	55	60.8	0	0	---	0.00	29.930 
20:50	77.9	77.9	79.4	55	60.4	0	0	---	0.00	29.930 
20:55	77.7	77.7	79.3	56	60.7	0	0	---	0.00	29.930 
21:00	77.4	77.4	79.1	57	61.0	0	0	---	0.00	29.933 
21:05	77.0	77.0	78.8	58	61.1	0	0	---	0.00	29.933 
21:10	76.7	76.7	78.5	59	61.3	0	0	---	0.00	29.933 
21:15	76.3	76.3	78.2	59	60.9	0	0	---	0.00	29.939 
21:20	76.0	76.0	78.0	61	61.6	0	0	---	0.00	29.939 
21:25	75.6	75.6	77.7	62	61.6	0	0	---	0.00	29.939 
21:30	75.3	75.3	77.4	63	61.8	0	0	---	0.00	29.941 
21:35	74.7	74.7	74.7	64	61.7	0	0	---	0.00	29.941 
21:40	74.4	74.4	74.4	65	61.8	0	0	---	0.00	29.941 
21:45	73.9	73.9	73.9	65	61.4	0	0	---	0.00	29.947 
21:50	73.7	73.7	73.7	66	61.6	0	0	---	0.00	29.947 
21:55	73.3	73.3	73.3	66	61.2	0	0	---	0.00	29.947 
22:00	73.0	73.0	73.0	68	61.8	0	0	---	0.00	29.948 
22:05	72.8	72.8	72.8	69	62.0	0	0	---	0.00	29.948 
22:10	72.7	72.7	72.7	69	61.9	0	0	---	0.00	29.948 
22:15	72.3	72.3	72.3	69	61.5	0	0	---	0.00	29.956 
22:20	72.1	72.1	72.1	70	61.8	0	0	---	0.00	29.956 
22:25	71.8	71.8	71.8	71	61.9	0	0	---	0.00	29.956 
22:30	71.6	71.6	71.6	72	62.1	0	0	---	0.00	29.960 
22:35	71.3	71.3	71.3	73	62.2	0	0	---	0.00	29.960 
22:40	70.9	70.9	70.9	74	62.2	0	0	---	0.00	29.960 
22:45	70.8	70.8	70.8	74	62.1	0	0	---	0.00	29.962 
22:50	70.4	70.4	70.4	75	62.1	0	0	---	0.00	29.962 
22:55	70.3	70.3	70.3	76	62.4	0	0	---	0.00	29.962 
23:00	70.1	70.1	70.1	77	62.5	0	0	---	0.00	29.962 
23:05	69.8	69.8	69.8	77	62.3	0	0	---	0.00	29.962 
23:10	69.6	69.6	69.6	78	62.4	0	0	---	0.00	29.962 
23:15	69.4	69.4	69.4	78	62.2	0	0	---	0.00	29.962 
23:20	69.3	69.3	69.3	79	62.5	0	0	---	0.00	29.962 
23:25	69.1	69.1	69.1	80	62.7	0	0	---	0.00	29.962 
23:30	68.9	68.9	68.9	80	62.5	0	0	---	0.00	29.964 
23:35	68.9	68.9	68.9	80	62.5	0	0	---	0.00	29.964 
23:40	68.6	68.6	68.6	80	62.2	0	0	---	0.00	29.964 
23:45	68.4	68.4	68.4	81	62.3	0	0	---	0.00	29.965 
23:50	68.3	68.3	68.3	81	62.2	0	0	---	0.00	29.965 
23:55	68.1	68.1	68.1	81	62.0	0	0	---	0.00	29.965 

CoCoRaHS
IN-AL-39
A2 Web Hosting
Creative Commons License
GoDaddy
search engine by freefind advanced

loaded 2018-11-18 11:24:51 • last modified 2010-11-18 10:43:29
Privacy PolicyDisclaimer
• wx.awcolley.com is powered by PmWiki v.2002016 •
• all content (unless otherwise noted) © 2018 A W Colley